createdAt,value
2022-09-23T00:01:24.466Z,12
2022-09-23T00:11:24.968Z,12
2022-09-23T00:21:25.576Z,12
2022-09-23T00:31:25.645Z,12
2022-09-23T00:41:26.058Z,12
2022-09-23T00:51:26.118Z,12
2022-09-23T01:01:26.257Z,12
2022-09-23T01:11:26.622Z,12.1
2022-09-23T01:21:27.482Z,12.1
2022-09-23T01:31:27.608Z,12.2
2022-09-23T01:41:28.574Z,12.1
2022-09-23T01:51:28.813Z,12.2
2022-09-23T02:01:29.418Z,12.2
2022-09-23T02:11:30.229Z,12.3
2022-09-23T02:21:30.931Z,12.3
2022-09-23T02:31:31.028Z,12.3
2022-09-23T02:41:31.128Z,12.4
2022-09-23T02:51:31.572Z,12.4
2022-09-23T03:01:31.971Z,12.5
2022-09-23T03:11:32.305Z,12.4
2022-09-23T03:21:32.834Z,12.4
2022-09-23T03:31:33.582Z,12.3
2022-09-23T03:41:34.206Z,12.3
2022-09-23T03:51:34.420Z,12.2
2022-09-23T04:01:34.852Z,12.1
2022-09-23T04:11:35.052Z,12
2022-09-23T04:21:35.258Z,11.8
2022-09-23T04:31:36.160Z,11.6
2022-09-23T04:41:37.011Z,11.6
2022-09-23T04:51:37.292Z,11.6
2022-09-23T05:01:37.931Z,11.5
2022-09-23T05:11:37.984Z,11.5
2022-09-23T05:21:38.167Z,11.6
2022-09-23T05:31:39.305Z,11.5
2022-09-23T05:41:40.142Z,11.4
2022-09-23T05:51:41.058Z,11.5
2022-09-23T06:01:41.245Z,11.5
2022-09-23T06:11:41.978Z,11.7
2022-09-23T06:21:42.525Z,11.8
2022-09-23T06:31:42.658Z,12
2022-09-23T06:41:43.130Z,12.5
2022-09-23T06:51:44.003Z,13.1
2022-09-23T07:01:44.531Z,13.5
2022-09-23T07:11:45.328Z,14
2022-09-23T07:21:46.116Z,13.9
2022-09-23T07:31:47.040Z,14
2022-09-23T07:41:47.870Z,14.2
2022-09-23T07:51:48.905Z,14.5
2022-09-23T08:01:49.023Z,14.7
2022-09-23T08:11:49.169Z,14.9
2022-09-23T08:21:50.020Z,15.1
2022-09-23T08:31:50.453Z,15.3
2022-09-23T08:41:52.908Z,15.4
2022-09-23T08:51:51.203Z,15.6
2022-09-23T09:01:52.098Z,15.8
2022-09-23T09:11:52.674Z,16
2022-09-23T09:21:53.403Z,16.1
2022-09-23T09:31:53.850Z,16.2
2022-09-23T09:41:54.520Z,16.4
2022-09-23T09:51:55.042Z,16.7
2022-09-23T10:01:55.215Z,16.8
2022-09-23T10:11:55.453Z,17.1
2022-09-23T10:21:55.822Z,17.2
2022-09-23T10:31:55.866Z,17.4
2022-09-23T10:41:56.452Z,17.6
2022-09-23T10:51:56.639Z,17.7
2022-09-23T11:11:56.826Z,17.9
2022-09-23T11:21:57.210Z,18.4
2022-09-23T11:31:59.612Z,18.4
2022-09-23T11:41:58.698Z,18.7
2022-09-23T11:51:59.001Z,18.9
2022-09-23T12:02:05.652Z,19
2022-09-23T12:12:00.171Z,19.1
2022-09-23T12:22:01.208Z,19.1
2022-09-23T12:32:01.833Z,19.1
2022-09-23T12:42:02.666Z,19.2
2022-09-23T12:52:02.730Z,19.2
2022-09-23T13:02:03.090Z,19
2022-09-23T13:12:04.046Z,19.1
2022-09-23T13:12:25.994Z,19.1
2022-09-23T13:22:09.695Z,19.1
2022-09-23T13:32:10.488Z,19
2022-09-23T13:42:10.547Z,18.9
2022-09-23T13:52:10.956Z,18.7
2022-09-23T14:12:12.232Z,18.4
2022-09-23T14:22:12.848Z,18.4
2022-09-23T14:32:13.182Z,18.3
2022-09-23T14:52:13.903Z,18.2
2022-09-23T15:02:14.402Z,18.1
2022-09-23T15:12:14.508Z,17.8
2022-09-23T15:22:15.120Z,17.7
2022-09-23T15:32:15.458Z,17.6
2022-09-23T15:42:15.637Z,17.6
2022-09-23T15:52:16.515Z,17.5
2022-09-23T16:02:16.889Z,17.4
2022-09-23T16:12:17.733Z,17.3
2022-09-23T16:22:17.932Z,17.3
2022-09-23T16:32:22.083Z,17.2
2022-09-23T16:42:18.886Z,17.2
2022-09-23T16:52:19.890Z,17.1
2022-09-23T17:12:20.618Z,16.5
2022-09-23T17:22:20.839Z,16.1
2022-09-23T17:32:21.069Z,15.9
2022-09-23T17:42:21.186Z,15.9
2022-09-23T17:52:21.914Z,15.7
2022-09-23T18:02:22.291Z,15.6
2022-09-23T18:12:22.949Z,15.3
2022-09-23T18:22:23.385Z,15.1
2022-09-23T18:32:23.773Z,15.2
2022-09-23T18:42:24.415Z,15.1
2022-09-23T18:52:25.056Z,15
2022-09-23T19:02:25.481Z,15
2022-09-23T19:12:25.926Z,15.1
2022-09-23T19:22:26.528Z,15.1
2022-09-23T19:32:26.884Z,15
2022-09-23T19:42:27.360Z,15
2022-09-23T20:02:28.751Z,14.8
2022-09-23T20:12:29.293Z,14.7
2022-09-23T20:22:33.291Z,14.6
2022-09-23T20:32:30.386Z,14.4
2022-09-23T20:42:30.617Z,14.4
2022-09-23T20:52:31.011Z,14.4
2022-09-23T21:02:31.916Z,14.3
2022-09-23T21:12:32.630Z,14.2
2022-09-23T21:22:33.392Z,14.2
2022-09-23T21:32:33.676Z,14.2
2022-09-23T21:42:33.917Z,14.2
2022-09-23T21:52:34.697Z,14.2
2022-09-23T22:02:35.098Z,14
2022-09-23T22:12:35.227Z,14
2022-09-23T22:22:35.421Z,14
2022-09-23T22:32:35.937Z,14
2022-09-23T22:52:36.946Z,14
2022-09-23T23:02:37.317Z,14
2022-09-23T23:12:38.115Z,14
2022-09-23T23:22:39.218Z,13.8
2022-09-23T23:32:39.851Z,13.8
2022-09-23T23:42:40.132Z,13.9
2022-09-23T23:52:41.019Z,14
